Saint Johns, Arizona
Current Conditions -  °F | °C
As of 11:54 PM on Saturday 25 Oct 2014 (Local Time) from KSJN Reporting Station
Clear Clear  
Wind Chill: 58°   Ceiling: Unl
Heat Index: 58°   Visibility: 10mi
Dew Point: 43°   Wind: 9mph
Humidity: 58%   Direction: 170°S
Pressure: 30.2"   Gusts: NA
Location:  34.51°N, 109.36°W
Report Text: KSJN 260654Z AUTO 17008KT 10SM CLR 14/06 A3020 RMK AO2 SLP145 T01440061 402610044
Loading
Personal Weather Stations






























Interactive Weather Map
Tropical Storm Tracking
New forecast layout! Learn more

10-Day Weather Forecast

Advertisements
Track Severe Weather on mobile